sensor_id;sensor_type;location;lat;lon;timestamp;pressure;altitude;pressure_sealevel;temperature;humidity
19236;BME280;9752;54.270;12.470;2023-04-01T00:02:26;100704.22;;;5.03;100.00
19236;BME280;9752;54.270;12.470;2023-04-01T00:07:29;100702.16;;;4.99;100.00
19236;BME280;9752;54.270;12.470;2023-04-01T00:12:31;100707.06;;;4.96;100.00
19236;BME280;9752;54.270;12.470;2023-04-01T00:17:33;100710.16;;;4.92;100.00
19236;BME280;9752;54.270;12.470;2023-04-01T00:22:36;100706.72;;;4.81;100.00
19236;BME280;9752;54.270;12.470;2023-04-01T00:27:38;100718.94;;;4.73;100.00
19236;BME280;9752;54.270;12.470;2023-04-01T00:32:40;100715.34;;;4.71;100.00
19236;BME280;9752;54.270;12.470;2023-04-01T00:37:43;100707.25;;;4.66;100.00
19236;BME280;9752;54.270;12.470;2023-04-01T00:42:45;100708.78;;;4.64;100.00
19236;BME280;9752;54.270;12.470;2023-04-01T00:47:46;100710.09;;;4.59;100.00
19236;BME280;9752;54.270;12.470;2023-04-01T00:52:50;100726.00;;;4.55;100.00
19236;BME280;9752;54.270;12.470;2023-04-01T00:57:53;100715.22;;;4.49;100.00
19236;BME280;9752;54.270;12.470;2023-04-01T01:02:57;100722.19;;;4.50;100.00
19236;BME280;9752;54.270;12.470;2023-04-01T01:08:07;100720.91;;;4.45;100.00
19236;BME280;9752;54.270;12.470;2023-04-01T01:13:17;100729.00;;;4.39;100.00
19236;BME280;9752;54.270;12.470;2023-04-01T01:18:26;100739.13;;;4.38;100.00
19236;BME280;9752;54.270;12.470;2023-04-01T01:23:42;100749.25;;;4.36;100.00
19236;BME280;9752;54.270;12.470;2023-04-01T01:28:56;100759.03;;;4.40;100.00
19236;BME280;9752;54.270;12.470;2023-04-01T01:34:13;100761.22;;;4.36;100.00
19236;BME280;9752;54.270;12.470;2023-04-01T01:39:19;100768.91;;;4.25;100.00
19236;BME280;9752;54.270;12.470;2023-04-01T01:44:28;100767.09;;;4.24;100.00
19236;BME280;9752;54.270;12.470;2023-04-01T01:49:33;100782.00;;;4.18;100.00
19236;BME280;9752;54.270;12.470;2023-04-01T01:54:47;100776.59;;;4.15;100.00
19236;BME280;9752;54.270;12.470;2023-04-01T01:59:51;100785.59;;;4.20;100.00
19236;BME280;9752;54.270;12.470;2023-04-01T02:04:58;100777.50;;;4.16;100.00
19236;BME280;9752;54.270;12.470;2023-04-01T02:10:02;100783.25;;;4.13;100.00
19236;BME280;9752;54.270;12.470;2023-04-01T02:15:07;100793.00;;;4.07;100.00
19236;BME280;9752;54.270;12.470;2023-04-01T02:20:13;100786.06;;;4.06;100.00
19236;BME280;9752;54.270;12.470;2023-04-01T02:25:18;100787.59;;;4.04;100.00
19236;BME280;9752;54.270;12.470;2023-04-01T02:30:21;100798.78;;;4.04;100.00
19236;BME280;9752;54.270;12.470;2023-04-01T02:35:24;100806.22;;;4.01;100.00
19236;BME280;9752;54.270;12.470;2023-04-01T02:40:28;100822.50;;;4.02;100.00
19236;BME280;9752;54.270;12.470;2023-04-01T02:45:30;100819.13;;;3.92;100.00
19236;BME280;9752;54.270;12.470;2023-04-01T02:50:31;100827.75;;;3.93;100.00
19236;BME280;9752;54.270;12.470;2023-04-01T02:55:34;100837.38;;;3.96;100.00
19236;BME280;9752;54.270;12.470;2023-04-01T03:00:36;100848.66;;;3.87;100.00
19236;BME280;9752;54.270;12.470;2023-04-01T03:05:38;100856.13;;;3.95;100.00
19236;BME280;9752;54.270;12.470;2023-04-01T03:10:41;100863.41;;;3.90;100.00
19236;BME280;9752;54.270;12.470;2023-04-01T03:15:43;100863.00;;;3.85;100.00
19236;BME280;9752;54.270;12.470;2023-04-01T03:20:45;100875.34;;;3.89;100.00
19236;BME280;9752;54.270;12.470;2023-04-01T03:25:48;100872.25;;;3.83;100.00
19236;BME280;9752;54.270;12.470;2023-04-01T03:30:50;100867.59;;;3.79;100.00
19236;BME280;9752;54.270;12.470;2023-04-01T03:35:51;100876.94;;;3.79;100.00
19236;BME280;9752;54.270;12.470;2023-04-01T03:40:54;100877.25;;;3.82;100.00
19236;BME280;9752;54.270;12.470;2023-04-01T03:45:56;100882.22;;;3.80;100.00
19236;BME280;9752;54.270;12.470;2023-04-01T03:50:59;100899.28;;;3.80;100.00
19236;BME280;9752;54.270;12.470;2023-04-01T03:56:05;100899.28;;;3.80;100.00
19236;BME280;9752;54.270;12.470;2023-04-01T04:01:17;100891.47;;;3.78;100.00
19236;BME280;9752;54.270;12.470;2023-04-01T04:06:20;100895.69;;;3.78;100.00
19236;BME280;9752;54.270;12.470;2023-04-01T04:11:24;100908.91;;;3.82;100.00
19236;BME280;9752;54.270;12.470;2023-04-01T04:16:27;100911.19;;;3.79;100.00
19236;BME280;9752;54.270;12.470;2023-04-01T04:21:33;100917.38;;;3.81;100.00
19236;BME280;9752;54.270;12.470;2023-04-01T04:26:36;100920.44;;;3.77;100.00
19236;BME280;9752;54.270;12.470;2023-04-01T04:31:38;100929.44;;;3.82;100.00
19236;BME280;9752;54.270;12.470;2023-04-01T04:36:41;100939.50;;;3.89;100.00
19236;BME280;9752;54.270;12.470;2023-04-01T04:41:44;100946.91;;;3.86;100.00
19236;BME280;9752;54.270;12.470;2023-04-01T04:46:45;100945.22;;;3.87;100.00
19236;BME280;9752;54.270;12.470;2023-04-01T04:51:49;100946.75;;;3.85;100.00
19236;BME280;9752;54.270;12.470;2023-04-01T04:56:54;100959.59;;;3.85;100.00
19236;BME280;9752;54.270;12.470;2023-04-01T05:01:57;100964.72;;;3.85;100.00
19236;BME280;9752;54.270;12.470;2023-04-01T05:06:59;100962.06;;;3.83;100.00
19236;BME280;9752;54.270;12.470;2023-04-01T05:12:03;100967.19;;;3.83;100.00
19236;BME280;9752;54.270;12.470;2023-04-01T05:17:23;100962.06;;;3.83;100.00
19236;BME280;9752;54.270;12.470;2023-04-01T05:22:26;100973.59;;;3.88;100.00
19236;BME280;9752;54.270;12.470;2023-04-01T05:27:29;100975.13;;;3.86;100.00
19236;BME280;9752;54.270;12.470;2023-04-01T05:32:31;100981.31;;;3.88;100.00
19236;BME280;9752;54.270;12.470;2023-04-01T05:37:33;100975.13;;;3.86;100.00
19236;BME280;9752;54.270;12.470;2023-04-01T05:42:36;100980.06;;;3.94;100.00
19236;BME280;9752;54.270;12.470;2023-04-01T05:47:38;100973.88;;;3.91;100.00
19236;BME280;9752;54.270;12.470;2023-04-01T05:52:40;100979.41;;;3.96;100.00
19236;BME280;9752;54.270;12.470;2023-04-01T05:57:45;100977.63;;;3.95;100.00
19236;BME280;9752;54.270;12.470;2023-04-01T06:02:48;100982.13;;;3.98;100.00
19236;BME280;9752;54.270;12.470;2023-04-01T06:07:51;100985.47;;;3.97;100.00
19236;BME280;9752;54.270;12.470;2023-04-01T06:13:00;100991.84;;;3.91;100.00
19236;BME280;9752;54.270;12.470;2023-04-01T06:23:52;100998.84;;;3.84;100.00
19236;BME280;9752;54.270;12.470;2023-04-01T06:29:12;100999.41;;;3.90;100.00
19236;BME280;9752;54.270;12.470;2023-04-01T06:34:34;100994.63;;;3.84;100.00
19236;BME280;9752;54.270;12.470;2023-04-01T06:39:59;101001.81;;;3.88;100.00
19236;BME280;9752;54.270;12.470;2023-04-01T06:45:16;101011.19;;;3.88;100.00
19236;BME280;9752;54.270;12.470;2023-04-01T06:50:51;101001.56;;;3.85;100.00
19236;BME280;9752;54.270;12.470;2023-04-01T06:56:37;101001.91;;;3.80;100.00
19236;BME280;9752;54.270;12.470;2023-04-01T07:01:51;101013.22;;;3.82;100.00
19236;BME280;9752;54.270;12.470;2023-04-01T07:06:57;101015.50;;;3.79;100.00
19236;BME280;9752;54.270;12.470;2023-04-01T07:12:02;101014.66;;;3.69;100.00
19236;BME280;9752;54.270;12.470;2023-04-01T07:17:36;101025.63;;;3.77;100.00
19236;BME280;9752;54.270;12.470;2023-04-01T07:22:42;101031.78;;;3.79;100.00
19236;BME280;9752;54.270;12.470;2023-04-01T07:27:56;101029.44;;;3.72;100.00
19236;BME280;9752;54.270;12.470;2023-04-01T07:33:05;101050.78;;;3.81;100.00
19236;BME280;9752;54.270;12.470;2023-04-01T07:38:16;101044.53;;;3.69;100.00
19236;BME280;9752;54.270;12.470;2023-04-01T07:43:31;101042.72;;;3.68;100.00
19236;BME280;9752;54.270;12.470;2023-04-01T07:48:56;101039.72;;;3.72;100.00
19236;BME280;9752;54.270;12.470;2023-04-01T07:54:04;101040.94;;;3.67;100.00
19236;BME280;9752;54.270;12.470;2023-04-01T07:59:14;101050.78;;;3.81;100.00
19236;BME280;9752;54.270;12.470;2023-04-01T08:04:46;101046.63;;;3.73;100.00
19236;BME280;9752;54.270;12.470;2023-04-01T08:09:58;101037.84;;;3.80;100.00
19236;BME280;9752;54.270;12.470;2023-04-01T08:15:23;101036.91;;;3.79;100.00
19236;BME280;9752;54.270;12.470;2023-04-01T08:20:43;101032.22;;;3.84;100.00
19236;BME280;9752;54.270;12.470;2023-04-01T08:25:50;101031.66;;;3.97;100.00
19236;BME280;9752;54.270;12.470;2023-04-01T08:31:01;101018.16;;;3.89;100.00
19236;BME280;9752;54.270;12.470;2023-04-01T08:36:10;101019.59;;;3.96;100.00
19236;BME280;9752;54.270;12.470;2023-04-01T08:41:35;101009.47;;;3.97;100.00
19236;BME280;9752;54.270;12.470;2023-04-01T08:47:23;101001.47;;;3.94;100.00
19236;BME280;9752;54.270;12.470;2023-04-01T08:52:34;101001.13;;;4.00;100.00
19236;BME280;9752;54.270;12.470;2023-04-01T08:57:45;100983.00;;;3.98;100.00
19236;BME280;9752;54.270;12.470;2023-04-01T09:03:43;100981.63;;;4.02;100.00
19236;BME280;9752;54.270;12.470;2023-04-01T09:14:52;100966.72;;;3.98;100.00
19236;BME280;9752;54.270;12.470;2023-04-01T09:20:23;100964.91;;;4.16;100.00
19236;BME280;9752;54.270;12.470;2023-04-01T09:25:50;100954.31;;;4.32;100.00
19236;BME280;9752;54.270;12.470;2023-04-01T09:31:32;100943.44;;;4.15;100.00
19236;BME280;9752;54.270;12.470;2023-04-01T09:37:21;100936.38;;;4.13;100.00
19236;BME280;9752;54.270;12.470;2023-04-01T09:42:42;100923.94;;;4.17;100.00
19236;BME280;9752;54.270;12.470;2023-04-01T09:48:03;100907.47;;;4.05;100.00
19236;BME280;9752;54.270;12.470;2023-04-01T09:53:15;100902.88;;;4.11;100.00
19236;BME280;9752;54.270;12.470;2023-04-01T10:09:58;100887.09;;;4.56;100.00
19236;BME280;9752;54.270;12.470;2023-04-01T10:15:35;100872.56;;;4.57;100.00
19236;BME280;9752;54.270;12.470;2023-04-01T10:21:11;100859.47;;;4.64;100.00
19236;BME280;9752;54.270;12.470;2023-04-01T10:26:29;100852.53;;;4.53;100.00
19236;BME280;9752;54.270;12.470;2023-04-01T10:32:05;100839.19;;;4.67;100.00
19236;BME280;9752;54.270;12.470;2023-04-01T10:37:31;100830.56;;;4.46;100.00
19236;BME280;9752;54.270;12.470;2023-04-01T10:43:09;100816.94;;;4.47;100.00
19236;BME280;9752;54.270;12.470;2023-04-01T10:48:51;100817.09;;;4.69;100.00
19236;BME280;9752;54.270;12.470;2023-04-01T10:54:13;100796.69;;;4.71;100.00
19236;BME280;9752;54.270;12.470;2023-04-01T10:59:53;100791.50;;;4.40;100.00
19236;BME280;9752;54.270;12.470;2023-04-01T11:11:24;100780.06;;;4.87;100.00
19236;BME280;9752;54.270;12.470;2023-04-01T11:22:44;100770.97;;;4.81;100.00
19236;BME280;9752;54.270;12.470;2023-04-01T11:28:06;100766.56;;;4.90;100.00
19236;BME280;9752;54.270;12.470;2023-04-01T11:33:19;100771.84;;;4.92;100.00
19236;BME280;9752;54.270;12.470;2023-04-01T11:38:53;100765.56;;;4.67;100.00
19236;BME280;9752;54.270;12.470;2023-04-01T11:44:38;100771.22;;;4.53;100.00
19236;BME280;9752;54.270;12.470;2023-04-01T11:50:00;100777.00;;;4.71;100.00
19236;BME280;9752;54.270;12.470;2023-04-01T11:55:31;100765.19;;;4.53;100.00
19236;BME280;9752;54.270;12.470;2023-04-01T12:06:08;100775.59;;;4.64;100.00
19236;BME280;9752;54.270;12.470;2023-04-01T12:11:23;100776.34;;;4.74;100.00
19236;BME280;9752;54.270;12.470;2023-04-01T12:16:51;100790.13;;;4.54;100.00
19236;BME280;9752;54.270;12.470;2023-04-01T12:22:08;100786.41;;;4.71;100.00
19236;BME280;9752;54.270;12.470;2023-04-01T12:27:38;100795.91;;;4.61;100.00
19236;BME280;9752;54.270;12.470;2023-04-01T12:32:47;100796.69;;;4.71;100.00
19236;BME280;9752;54.270;12.470;2023-04-01T12:38:07;100810.13;;;4.68;100.00
19236;BME280;9752;54.270;12.470;2023-04-01T12:43:28;100805.53;;;4.64;100.00
19236;BME280;9752;54.270;12.470;2023-04-01T12:48:57;100814.38;;;4.67;100.00
19236;BME280;9752;54.270;12.470;2023-04-01T12:54:34;100812.69;;;4.99;100.00
19236;BME280;9752;54.270;12.470;2023-04-01T12:59:58;100800.13;;;4.71;100.00
19236;BME280;9752;54.270;12.470;2023-04-01T13:05:22;100817.72;;;4.77;100.00
19236;BME280;9752;54.270;12.470;2023-04-01T13:10:35;100832.25;;;4.66;100.00
19236;BME280;9752;54.270;12.470;2023-04-01T13:15:43;100834.41;;;4.41;100.00
19236;BME280;9752;54.270;12.470;2023-04-01T13:20:54;100834.16;;;4.48;100.00
19236;BME280;9752;54.270;12.470;2023-04-01T13:26:06;100845.97;;;4.46;100.00
19236;BME280;9752;54.270;12.470;2023-04-01T13:31:24;100842.22;;;4.32;100.00
19236;BME280;9752;54.270;12.470;2023-04-01T13:36:35;100860.31;;;4.34;100.00
19236;BME280;9752;54.270;12.470;2023-04-01T13:47:17;100878.00;;;4.10;100.00
19236;BME280;9752;54.270;12.470;2023-04-01T13:52:37;100886.66;;;4.02;100.00
19236;BME280;9752;54.270;12.470;2023-04-01T13:57:56;100886.03;;;3.75;100.00
19236;BME280;9752;54.270;12.470;2023-04-01T14:03:32;100887.03;;;3.67;100.00
19236;BME280;9752;54.270;12.470;2023-04-01T14:08:50;100901.47;;;3.56;100.00
19236;BME280;9752;54.270;12.470;2023-04-01T14:14:00;100907.88;;;3.32;100.00
19236;BME280;9752;54.270;12.470;2023-04-01T14:19:22;100912.41;;;3.45;100.00
19236;BME280;9752;54.270;12.470;2023-04-01T14:24:45;100923.09;;;3.49;100.00
19236;BME280;9752;54.270;12.470;2023-04-01T14:30:00;100926.75;;;3.43;100.00
19236;BME280;9752;54.270;12.470;2023-04-01T14:35:22;100930.09;;;3.42;100.00
19236;BME280;9752;54.270;12.470;2023-04-01T14:40:28;100931.00;;;3.61;100.00
19236;BME280;9752;54.270;12.470;2023-04-01T14:45:50;100941.44;;;3.73;100.00
19236;BME280;9752;54.270;12.470;2023-04-01T14:50:55;100957.16;;;3.86;100.00
19236;BME280;9752;54.270;12.470;2023-04-01T14:56:00;100959.41;;;3.73;100.00
19236;BME280;9752;54.270;12.470;2023-04-01T15:01:13;100960.50;;;3.85;100.00
19236;BME280;9752;54.270;12.470;2023-04-01T15:06:53;100964.53;;;3.73;100.00
19236;BME280;9752;54.270;12.470;2023-04-01T15:12:07;100967.16;;;4.02;100.00
19236;BME280;9752;54.270;12.470;2023-04-01T15:17:23;100979.03;;;3.91;100.00
19236;BME280;9752;54.270;12.470;2023-04-01T15:22:51;100980.34;;;3.59;100.00
19236;BME280;9752;54.270;12.470;2023-04-01T15:28:00;100977.16;;;3.42;100.00
19236;BME280;9752;54.270;12.470;2023-04-01T15:33:29;100993.38;;;3.51;100.00
19236;BME280;9752;54.270;12.470;2023-04-01T15:38:44;101005.50;;;3.44;100.00
19236;BME280;9752;54.270;12.470;2023-04-01T15:43:50;101009.66;;;3.52;100.00
19236;BME280;9752;54.270;12.470;2023-04-01T15:49:02;101020.56;;;3.49;100.00
19236;BME280;9752;54.270;12.470;2023-04-01T15:54:27;101029.13;;;3.50;100.00
19236;BME280;9752;54.270;12.470;2023-04-01T15:59:50;101039.72;;;3.72;100.00
19236;BME280;9752;54.270;12.470;2023-04-01T16:04:58;101045.81;;;3.36;100.00
19236;BME280;9752;54.270;12.470;2023-04-01T16:10:17;101053.03;;;3.40;100.00
19236;BME280;9752;54.270;12.470;2023-04-01T16:15:27;101061.53;;;3.30;100.00
19236;BME280;9752;54.270;12.470;2023-04-01T16:20:43;101070.13;;;3.31;100.00
19236;BME280;9752;54.270;12.470;2023-04-01T16:25:52;101090.78;;;3.32;100.00
19236;BME280;9752;54.270;12.470;2023-04-01T16:30:58;101085.13;;;3.18;100.00
19236;BME280;9752;54.270;12.470;2023-04-01T16:36:09;101093.69;;;3.18;100.00
19236;BME280;9752;54.270;12.470;2023-04-01T16:41:16;101103.41;;;3.03;100.00
19236;BME280;9752;54.270;12.470;2023-04-01T16:46:32;101113.53;;;2.93;100.00
19236;BME280;9752;54.270;12.470;2023-04-01T16:51:44;101117.03;;;2.85;100.00
19236;BME280;9752;54.270;12.470;2023-04-01T16:56:50;101136.59;;;2.93;100.00
19236;BME280;9752;54.270;12.470;2023-04-01T17:02:00;101141.88;;;2.86;100.00
19236;BME280;9752;54.270;12.470;2023-04-01T17:07:15;101150.66;;;2.79;100.00
19236;BME280;9752;54.270;12.470;2023-04-01T17:12:25;101163.63;;;2.72;100.00
19236;BME280;9752;54.270;12.470;2023-04-01T17:17:36;101172.19;;;2.72;100.00
19236;BME280;9752;54.270;12.470;2023-04-01T17:22:44;101186.50;;;2.44;100.00
19236;BME280;9752;54.270;12.470;2023-04-01T17:27:57;101200.66;;;2.41;100.00
19236;BME280;9752;54.270;12.470;2023-04-01T17:33:23;101207.44;;;2.23;100.00
19236;BME280;9752;54.270;12.470;2023-04-01T17:38:57;101212.81;;;2.08;100.00
19236;BME280;9752;54.270;12.470;2023-04-01T17:44:16;101225.72;;;1.92;100.00
19236;BME280;9752;54.270;12.470;2023-04-01T17:49:25;101235.19;;;1.93;100.00
19236;BME280;9752;54.270;12.470;2023-04-01T17:54:36;101241.41;;;1.95;100.00
19236;BME280;9752;54.270;12.470;2023-04-01T17:59:49;101249.19;;;1.88;100.00
19236;BME280;9752;54.270;12.470;2023-04-01T18:05:19;101261.72;;;2.03;100.00
19236;BME280;9752;54.270;12.470;2023-04-01T18:10:31;101271.81;;;2.01;100.00
19236;BME280;9752;54.270;12.470;2023-04-01T18:15:41;101280.72;;;1.80;100.00
19236;BME280;9752;54.270;12.470;2023-04-01T18:20:54;101296.78;;;1.70;100.00
19236;BME280;9752;54.270;12.470;2023-04-01T18:26:05;101303.47;;;1.52;100.00
19236;BME280;9752;54.270;12.470;2023-04-01T18:31:14;101324.72;;;1.35;100.00
19236;BME280;9752;54.270;12.470;2023-04-01T18:36:20;101325.81;;;1.22;100.00
19236;BME280;9752;54.270;12.470;2023-04-01T18:41:30;101341.16;;;1.22;100.00
19236;BME280;9752;54.270;12.470;2023-04-01T18:46:39;101346.34;;;1.14;100.00
19236;BME280;9752;54.270;12.470;2023-04-01T18:51:49;101353.34;;;1.24;100.00
19236;BME280;9752;54.270;12.470;2023-04-01T18:57:02;101362.09;;;1.10;100.00
19236;BME280;9752;54.270;12.470;2023-04-01T19:02:20;101366.06;;;0.84;100.00
19236;BME280;9752;54.270;12.470;2023-04-01T19:07:46;101382.88;;;0.82;100.00
19236;BME280;9752;54.270;12.470;2023-04-01T19:12:59;101394.97;;;0.91;100.00
19236;BME280;9752;54.270;12.470;2023-04-01T19:18:40;101387.56;;;0.86;100.00
19236;BME280;9752;54.270;12.470;2023-04-01T19:23:57;101408.06;;;0.78;100.00
19236;BME280;9752;54.270;12.470;2023-04-01T19:29:06;101408.53;;;0.83;100.00
19236;BME280;9752;54.270;12.470;2023-04-01T19:34:22;101421.19;;;0.82;100.00
19236;BME280;9752;54.270;12.470;2023-04-01T19:39:38;101426.81;;;0.63;100.00
19236;BME280;9752;54.270;12.470;2023-04-01T19:44:47;101436.69;;;0.60;100.00
19236;BME280;9752;54.270;12.470;2023-04-01T19:49:59;101444.75;;;0.56;100.00
19236;BME280;9752;54.270;12.470;2023-04-01T19:55:30;101448.38;;;0.58;100.00
19236;BME280;9752;54.270;12.470;2023-04-01T20:00:37;101454.59;;;0.53;100.00
19236;BME280;9752;54.270;12.470;2023-04-01T20:05:49;101462.44;;;0.54;100.00
19236;BME280;9752;54.270;12.470;2023-04-01T20:11:04;101476.91;;;0.47;100.00
19236;BME280;9752;54.270;12.470;2023-04-01T20:16:08;101484.91;;;0.50;100.00
19236;BME280;9752;54.270;12.470;2023-04-01T20:21:27;101495.53;;;0.46;100.00
19236;BME280;9752;54.270;12.470;2023-04-01T20:26:33;101501.94;;;0.42;100.00
19236;BME280;9752;54.270;12.470;2023-04-01T20:31:40;101507.47;;;0.54;100.00
19236;BME280;9752;54.270;12.470;2023-04-01T20:36:55;101508.84;;;0.66;100.00
19236;BME280;9752;54.270;12.470;2023-04-01T20:42:14;101525.09;;;0.67;100.00
19236;BME280;9752;54.270;12.470;2023-04-01T20:47:27;101520.19;;;0.84;100.00
19236;BME280;9752;54.270;12.470;2023-04-01T20:52:37;101539.25;;;0.72;100.00
19236;BME280;9752;54.270;12.470;2023-04-01T20:57:45;101533.88;;;0.62;100.00
19236;BME280;9752;54.270;12.470;2023-04-01T21:03:05;101544.97;;;0.62;100.00
19236;BME280;9752;54.270;12.470;2023-04-01T21:08:15;101555.00;;;0.61;100.00
19236;BME280;9752;54.270;12.470;2023-04-01T21:13:33;101555.34;;;0.87;100.00
19236;BME280;9752;54.270;12.470;2023-04-01T21:18:53;101564.44;;;0.92;100.00
19236;BME280;9752;54.270;12.470;2023-04-01T21:24:27;101567.63;;;1.05;100.00
19236;BME280;9752;54.270;12.470;2023-04-01T21:29:42;101574.47;;;1.13;100.00
19236;BME280;9752;54.270;12.470;2023-04-01T21:34:50;101581.84;;;1.26;100.00
19236;BME280;9752;54.270;12.470;2023-04-01T21:40:12;101583.56;;;1.19;100.00
19236;BME280;9752;54.270;12.470;2023-04-01T21:45:27;101586.53;;;1.14;100.00
19236;BME280;9752;54.270;12.470;2023-04-01T21:51:15;101599.97;;;1.21;100.00
19236;BME280;9752;54.270;12.470;2023-04-01T21:56:47;101607.81;;;1.22;100.00
19236;BME280;9752;54.270;12.470;2023-04-01T22:07:21;101610.28;;;1.06;100.00
19236;BME280;9752;54.270;12.470;2023-04-01T22:12:30;101626.88;;;0.87;100.00
19236;BME280;9752;54.270;12.470;2023-04-01T22:17:38;101636.59;;;1.05;100.00
19236;BME280;9752;54.270;12.470;2023-04-01T22:23:07;101638.03;;;1.10;100.00
19236;BME280;9752;54.270;12.470;2023-04-01T22:28:17;101646.00;;;1.13;100.00
19236;BME280;9752;54.270;12.470;2023-04-01T22:33:29;101655.72;;;1.09;100.00
19236;BME280;9752;54.270;12.470;2023-04-01T22:38:50;101670.78;;;1.45;100.00
19236;BME280;9752;54.270;12.470;2023-04-01T22:43:58;101657.53;;;1.56;100.00
19236;BME280;9752;54.270;12.470;2023-04-01T22:49:05;101653.97;;;1.63;100.00
19236;BME280;9752;54.270;12.470;2023-04-01T22:54:15;101668.31;;;1.53;100.00
19236;BME280;9752;54.270;12.470;2023-04-01T22:59:27;101670.75;;;1.68;100.00
19236;BME280;9752;54.270;12.470;2023-04-01T23:04:33;101674.72;;;1.73;100.00
19236;BME280;9752;54.270;12.470;2023-04-01T23:09:38;101683.47;;;1.75;100.00
19236;BME280;9752;54.270;12.470;2023-04-01T23:14:59;101684.19;;;1.74;100.00
19236;BME280;9752;54.270;12.470;2023-04-01T23:20:07;101682.53;;;1.74;100.00
19236;BME280;9752;54.270;12.470;2023-04-01T23:25:23;101701.97;;;1.88;100.00
19236;BME280;9752;54.270;12.470;2023-04-01T23:30:49;101705.53;;;1.98;100.00
19236;BME280;9752;54.270;12.470;2023-04-01T23:35:53;101712.97;;;2.03;100.00
19236;BME280;9752;54.270;12.470;2023-04-01T23:40:56;101721.13;;;2.08;100.00
19236;BME280;9752;54.270;12.470;2023-04-01T23:46:01;101720.41;;;2.09;100.00
19236;BME280;9752;54.270;12.470;2023-04-01T23:51:12;101719.31;;;2.07;100.00
19236;BME280;9752;54.270;12.470;2023-04-01T23:56:16;101730.78;;;2.10;100.00
